Time;durP1;ratioP1;P1;durP2;ratioP2;P2;SDS_P1;SDS_P2;PMS_P1;PMS_P2;Temp;Humidity;BMP_temperature;BMP_pressure;BME280_temperature;BME280_humidity;BME280_pressure;Samples;Min_cycle;Max_cycle;Signal;HPM_P1;HPM_P2
2022/11/05 00:09:31;;;;;;;2.67;1.00;;;;;;;8.88;nan;97787.97;5054242;28;20177;-71
2022/11/05 00:17:33;;;;;;;1.23;1.23;;;;;;;8.93;nan;97782.84;5054134;28;20180;-71
2022/11/05 00:19:59;;;;;;;2.33;1.73;;;;;;;8.88;nan;97783.47;5054322;28;20212;-71
2022/11/05 00:25:20;;;;;;;2.60;1.70;;;;;;;8.87;nan;97795.09;5054329;28;20723;-71
2022/11/05 00:27:52;;;;;;;2.43;1.97;;;;;;;8.92;nan;97800.56;5055006;28;20209;-71
2022/11/05 00:30:21;;;;;;;3.03;1.83;;;;;;;8.88;nan;97801.22;5054072;28;20232;-71
2022/11/05 00:32:49;;;;;;;3.33;1.80;;;;;;;8.91;nan;97803.47;5053818;28;20690;-71
2022/11/05 00:35:17;;;;;;;2.90;1.73;;;;;;;9.00;nan;97815.44;5053726;28;20205;-71
2022/11/05 00:37:44;;;;;;;3.87;1.90;;;;;;;8.99;nan;97813.78;5054031;28;20228;-71
2022/11/05 00:40:11;;;;;;;2.87;1.80;;;;;;;8.91;nan;97820.16;5053860;28;20232;-71
2022/11/05 00:45:27;;;;;;;3.23;1.90;;;;;;;8.98;nan;97815.66;5053989;28;20164;-71
2022/11/05 00:50:37;;;;;;;2.83;1.70;;;;;;;9.03;nan;97815.81;5053533;28;20212;-71
2022/11/05 00:53:03;;;;;;;5.13;1.77;;;;;;;9.00;nan;97824.19;5053436;28;20213;-71
2022/11/05 00:55:41;;;;;;;2.07;1.63;;;;;;;9.01;nan;97833.75;5054279;28;20213;-71
2022/11/05 00:58:22;;;;;;;5.40;2.00;;;;;;;8.98;nan;97831.56;5053385;28;20640;-71
2022/11/05 01:00:54;;;;;;;3.07;1.70;;;;;;;8.97;nan;97835.22;5053649;28;20224;-72
2022/11/05 01:03:24;;;;;;;5.80;2.37;;;;;;;8.92;nan;97834.25;5053696;28;20557;-72
2022/11/05 01:05:55;;;;;;;2.67;1.73;;;;;;;8.95;nan;97836.44;5053311;28;20695;-71
2022/11/05 01:08:23;;;;;;;3.40;1.80;;;;;;;8.97;nan;97837.06;5053577;28;20185;-71
2022/11/05 01:10:52;;;;;;;3.60;2.10;;;;;;;8.95;nan;97841.75;5053175;28;20236;-72
2022/11/05 01:13:25;;;;;;;2.40;1.60;;;;;;;8.93;nan;97843.81;5053096;28;20232;-71
2022/11/05 01:15:52;;;;;;;3.30;1.97;;;;;;;8.92;nan;97852.81;5053188;28;20215;-71
2022/11/05 01:18:20;;;;;;;2.93;2.07;;;;;;;8.95;nan;97847.06;5053477;28;20255;-71
2022/11/05 01:20:47;;;;;;;3.80;2.53;;;;;;;8.95;nan;97849.69;5053102;28;20233;-72
2022/11/05 01:23:14;;;;;;;2.53;2.33;;;;;;;8.94;nan;97853.38;5053546;28;20217;-72
2022/11/05 01:25:44;;;;;;;2.43;2.23;;;;;;;8.92;nan;97853.59;5053442;28;20213;-71
2022/11/05 01:28:11;;;;;;;3.43;2.20;;;;;;;8.95;nan;97857.66;5053328;28;20291;-71
2022/11/05 01:30:37;;;;;;;1.80;1.70;;;;;;;8.94;nan;97859.50;5053885;28;20586;-71
2022/11/05 01:33:04;;;;;;;3.10;2.00;;;;;;;8.97;nan;97863.56;5053269;28;20205;-71
2022/11/05 01:35:30;;;;;;;2.27;1.57;;;;;;;8.94;nan;97856.88;5056303;28;20217;-71
2022/11/05 01:37:56;;;;;;;2.80;1.70;;;;;;;8.95;nan;97858.47;5057374;28;20212;-72
2022/11/05 01:40:25;;;;;;;2.60;2.07;;;;;;;8.96;nan;97861.97;5056846;28;20239;-71
2022/11/05 01:42:51;;;;;;;3.43;1.90;;;;;;;8.98;nan;97862.53;5057125;28;20209;-72
2022/11/05 01:45:22;;;;;;;2.10;1.90;;;;;;;8.95;nan;97860.31;5057128;28;20197;-71
2022/11/05 01:48:03;;;;;;;2.60;1.63;;;;;;;8.94;nan;97856.03;5056835;28;20186;-71
2022/11/05 01:50:53;;;;;;;2.30;2.00;;;;;;;8.92;nan;97860.75;5056645;28;20275;-71
2022/11/05 01:53:44;;;;;;;2.33;2.10;;;;;;;8.90;nan;97868.91;5056857;28;20351;-72
2022/11/05 01:56:33;;;;;;;3.17;2.47;;;;;;;8.92;nan;97866.06;5056745;28;20194;-71
2022/11/05 01:59:09;;;;;;;3.60;2.40;;;;;;;8.95;nan;97870.91;5056842;28;20189;-71
2022/11/05 02:01:35;;;;;;;2.87;2.60;;;;;;;8.95;nan;97871.75;5056657;28;20577;-71
2022/11/05 02:04:08;;;;;;;4.03;2.83;;;;;;;8.99;nan;97861.50;5056666;28;20205;-72
2022/11/05 02:06:41;;;;;;;3.33;2.80;;;;;;;8.95;nan;97871.75;5056534;28;20186;-71
2022/11/05 02:09:20;;;;;;;3.70;3.10;;;;;;;9.01;nan;97881.47;5056578;28;20196;-71
2022/11/05 02:11:48;;;;;;;4.17;3.10;;;;;;;8.97;nan;97868.88;5056484;28;20273;-71
2022/11/05 02:14:14;;;;;;;3.77;2.90;;;;;;;9.03;nan;97875.97;5056429;28;20225;-71
2022/11/05 02:16:50;;;;;;;5.10;2.73;;;;;;;9.00;nan;97879.06;5056411;28;20205;-71
2022/11/05 02:19:35;;;;;;;3.73;2.43;;;;;;;8.98;nan;97883.75;5055245;28;20193;-72
2022/11/05 02:22:36;;;;;;;2.37;2.10;;;;;;;9.01;nan;97876.19;5056246;28;20235;-71
2022/11/05 02:25:21;;;;;;;4.07;2.07;;;;;;;8.98;nan;97879.28;5055535;28;20205;-71
2022/11/05 02:27:57;;;;;;;2.10;2.00;;;;;;;8.94;nan;97877.25;5057078;28;20200;-72
2022/11/05 02:30:46;;;;;;;2.23;2.00;;;;;;;8.90;nan;97890.13;5056058;28;20239;-72
2022/11/05 02:33:45;;;;;;;1.80;1.70;;;;;;;8.91;nan;97888.28;5056161;28;20633;-72
2022/11/05 02:36:17;;;;;;;2.13;1.93;;;;;;;8.92;nan;97882.75;5040175;28;20189;-71
2022/11/05 02:39:05;;;;;;;2.90;1.60;;;;;;;8.93;nan;97883.59;5056349;28;20205;-71
2022/11/05 02:41:47;;;;;;;3.97;1.77;;;;;;;8.94;nan;97885.19;5055919;28;20230;-71
2022/11/05 02:44:33;;;;;;;1.80;1.70;;;;;;;8.94;nan;97890.50;5056205;28;20196;-71
2022/11/05 02:47:07;;;;;;;4.27;1.70;;;;;;;8.94;nan;97886.03;5055820;28;20537;-71
2022/11/05 02:50:18;;;;;;;1.97;1.63;;;;;;;8.96;nan;97893.78;5055838;28;20189;-71
2022/11/05 02:53:22;;;;;;;1.90;1.60;;;;;;;8.94;nan;97891.34;5055640;28;20209;-71
2022/11/05 02:55:58;;;;;;;1.97;1.60;;;;;;;8.96;nan;97889.25;5056024;28;20212;-71
2022/11/05 02:58:27;;;;;;;3.57;1.90;;;;;;;9.01;nan;97892.09;5056472;28;20227;-71
2022/11/05 03:00:58;;;;;;;2.03;1.87;;;;;;;8.97;nan;97892.75;5055764;28;20225;-71
2022/11/05 03:03:33;;;;;;;1.80;1.70;;;;;;;8.96;nan;97893.78;5056363;28;20292;-71
2022/11/05 03:06:13;;;;;;;4.03;2.00;;;;;;;8.99;nan;97894.16;5055791;28;20196;-71
2022/11/05 03:08:47;;;;;;;1.97;1.77;;;;;;;8.99;nan;97888.03;5054623;28;20284;-71
2022/11/05 03:11:17;;;;;;;2.37;2.17;;;;;;;8.93;nan;97889.72;5054525;28;20235;-71
2022/11/05 03:13:52;;;;;;;2.10;1.90;;;;;;;8.96;nan;97893.78;5055283;28;20209;-71
2022/11/05 03:16:40;;;;;;;4.50;1.97;;;;;;;8.96;nan;97899.88;5055633;28;20193;-71
2022/11/05 03:19:36;;;;;;;2.40;2.20;;;;;;;8.99;nan;97903.94;5055253;28;20218;-71
2022/11/05 03:22:10;;;;;;;2.37;1.93;;;;;;;8.98;nan;97910.28;5054060;28;20271;-71
2022/11/05 03:24:43;;;;;;;3.37;2.13;;;;;;;8.95;nan;97919.47;5055473;28;20185;-71
2022/11/05 03:27:14;;;;;;;2.47;2.20;;;;;;;8.99;nan;97912.72;5053857;28;20645;-71
2022/11/05 03:29:49;;;;;;;2.70;2.50;;;;;;;9.03;nan;97908.63;5055378;28;20287;-72
2022/11/05 03:32:19;;;;;;;2.47;2.20;;;;;;;8.97;nan;97914.75;5055324;28;20197;-71
2022/11/05 03:34:50;;;;;;;2.30;2.20;;;;;;;8.97;nan;97921.91;5055122;28;20279;-71
2022/11/05 03:37:20;;;;;;;3.00;2.00;;;;;;;8.96;nan;97920.28;5054029;28;20189;-71
2022/11/05 03:39:50;;;;;;;2.23;2.03;;;;;;;9.01;nan;97923.13;5054844;28;20596;-71
2022/11/05 03:42:20;;;;;;;2.00;1.90;;;;;;;8.95;nan;97922.13;5054828;28;20637;-71
2022/11/05 03:44:52;;;;;;;2.20;2.00;;;;;;;8.97;nan;97916.59;5055086;28;20205;-72
2022/11/05 03:47:22;;;;;;;2.70;2.03;;;;;;;9.00;nan;97932.09;5053748;28;20559;-71
2022/11/05 03:50:02;;;;;;;3.40;2.13;;;;;;;8.95;nan;97930.06;5054861;28;20205;-72
2022/11/05 03:52:36;;;;;;;3.03;1.93;;;;;;;8.97;nan;97940.47;5054915;28;20293;-72
2022/11/05 03:55:02;;;;;;;2.07;1.97;;;;;;;8.99;nan;97943.72;5054849;28;20216;-71
2022/11/05 03:57:36;;;;;;;4.03;1.97;;;;;;;9.03;nan;97944.91;5053895;28;20212;-71
2022/11/05 04:00:08;;;;;;;2.07;1.90;;;;;;;9.00;nan;97945.34;5054732;28;20190;-71
2022/11/05 04:02:34;;;;;;;2.33;1.90;;;;;;;9.02;nan;97945.94;5054687;28;20200;-72
2022/11/05 04:05:01;;;;;;;4.23;2.27;;;;;;;8.99;nan;97951.66;5054355;28;20205;-71
2022/11/05 04:18:19;;;;;;;2.57;2.37;;;;;;;8.94;nan;97970.88;5053894;28;20283;-71
2022/11/05 04:26:12;;;;;;;2.93;2.63;;;;;;;8.78;nan;97979.28;5053858;28;20169;-71
2022/11/05 04:31:19;;;;;;;3.57;3.27;;;;;;;8.85;nan;97979.25;5053593;28;20216;-71
2022/11/05 04:33:45;;;;;;;4.17;3.77;;;;;;;8.81;nan;97980.69;5053688;28;20220;-72
2022/11/05 04:36:11;;;;;;;3.87;3.53;;;;;;;8.83;nan;97984.75;5053741;28;20664;-71
2022/11/05 04:38:38;;;;;;;4.30;4.00;;;;;;;8.87;nan;97985.19;5054041;28;20211;-71
2022/11/05 04:41:15;;;;;;;5.27;4.23;;;;;;;8.89;nan;97991.06;5053753;28;20225;-71
2022/11/05 04:43:42;;;;;;;4.93;4.43;;;;;;;8.91;nan;97986.38;5053877;28;20205;-71
2022/11/05 04:46:09;;;;;;;5.40;4.90;;;;;;;8.86;nan;97989.66;5053887;28;20212;-71
2022/11/05 04:48:35;;;;;;;5.00;4.60;;;;;;;8.89;nan;97986.59;5053856;28;20205;-71
2022/11/05 04:51:02;;;;;;;5.50;5.00;;;;;;;8.87;nan;97995.78;5053726;28;20225;-71
2022/11/05 04:53:28;;;;;;;5.83;5.23;;;;;;;8.91;nan;97997.78;5053768;28;20205;-71
2022/11/05 04:55:55;;;;;;;5.60;5.10;;;;;;;8.87;nan;97995.78;5053673;28;20229;-71
2022/11/05 04:58:21;;;;;;;6.67;5.37;;;;;;;8.90;nan;97998.00;5053680;28;20209;-71
2022/11/05 05:00:49;;;;;;;6.13;5.53;;;;;;;8.88;nan;97995.53;5053519;28;20225;-71
2022/11/05 05:03:15;;;;;;;7.03;6.43;;;;;;;8.92;nan;97995.97;5053545;28;20211;-71
2022/11/05 05:05:42;;;;;;;7.00;6.40;;;;;;;8.96;nan;98000.63;5053646;28;20197;-71
2022/11/05 05:08:08;;;;;;;7.97;7.17;;;;;;;8.88;nan;98010.66;5053042;28;20201;-71
2022/11/05 05:10:35;;;;;;;7.17;6.57;;;;;;;8.91;nan;98005.75;5053343;28;20231;-71
2022/11/05 05:13:01;;;;;;;7.70;7.00;;;;;;;8.95;nan;98003.47;5053393;28;20201;-71
2022/11/05 05:15:28;;;;;;;7.10;6.50;;;;;;;8.93;nan;98010.84;5053422;28;20221;-71
2022/11/05 05:17:55;;;;;;;6.67;6.17;;;;;;;8.90;nan;98011.25;5053249;28;20212;-71
2022/11/05 05:23:05;;;;;;;7.67;7.03;;;;;;;8.87;nan;98020.44;5053082;28;20335;-71
2022/11/05 05:25:32;;;;;;;7.87;7.10;;;;;;;8.99;nan;98020.59;5053082;28;20205;-71
2022/11/05 05:27:59;;;;;;;7.53;6.83;;;;;;;8.86;nan;98028.59;5053381;28;20212;-71
2022/11/05 05:30:26;;;;;;;8.20;7.00;;;;;;;8.88;nan;98024.72;5053275;28;20224;-72
2022/11/05 05:32:52;;;;;;;7.67;6.90;;;;;;;8.87;nan;98025.75;5054394;28;20207;-71
2022/11/05 05:35:18;;;;;;;8.57;7.77;;;;;;;8.92;nan;98035.72;5053214;28;20232;-71
2022/11/05 05:37:45;;;;;;;8.20;7.50;;;;;;;8.96;nan;98027.13;5053155;28;20216;-71
2022/11/05 05:40:11;;;;;;;9.57;7.80;;;;;;;8.97;nan;98033.25;5053032;28;20221;-71
2022/11/05 05:42:37;;;;;;;8.70;7.80;;;;;;;8.94;nan;98050.41;5053185;28;20205;-71
2022/11/05 05:45:04;;;;;;;9.87;8.73;;;;;;;8.99;nan;98042.63;5053067;28;20197;-71
2022/11/05 05:47:30;;;;;;;9.80;8.90;;;;;;;8.93;nan;98042.66;5053151;28;20205;-71
2022/11/05 05:49:57;;;;;;;10.60;9.40;;;;;;;8.92;nan;98047.13;5053813;28;20228;-71
2022/11/05 05:52:23;;;;;;;11.43;10.33;;;;;;;8.90;nan;98054.50;5053993;28;20296;-72
2022/11/05 05:54:50;;;;;;;10.80;9.70;;;;;;;8.87;nan;98049.59;5052692;28;20268;-72
2022/11/05 05:57:16;;;;;;;12.20;10.93;;;;;;;8.91;nan;98040.22;5052770;28;20205;-72
2022/11/05 05:59:42;;;;;;;12.47;11.27;;;;;;;8.95;nan;98059.16;5052713;28;20213;-71
2022/11/05 06:02:10;;;;;;;13.77;12.47;;;;;;;8.94;nan;98057.53;5052985;28;20233;-72
2022/11/05 06:04:36;;;;;;;14.47;12.97;;;;;;;8.85;nan;98064.91;5052797;28;20598;-72
2022/11/05 06:07:03;;;;;;;16.30;13.13;;;;;;;8.90;nan;98066.91;5053011;28;20296;-71
2022/11/05 06:09:29;;;;;;;14.87;13.43;;;;;;;8.89;nan;98073.25;5053472;28;20221;-71
2022/11/05 06:11:55;;;;;;;14.97;13.47;;;;;;;8.94;nan;98071.63;5052277;28;20237;-71
2022/11/05 06:14:22;;;;;;;15.27;13.70;;;;;;;9.07;nan;98079.53;5052327;28;20205;-71
2022/11/05 06:16:48;;;;;;;14.33;12.87;;;;;;;8.94;nan;98082.22;5052579;28;20627;-71
2022/11/05 06:19:15;;;;;;;15.97;13.57;;;;;;;8.96;nan;98088.13;5052745;28;20206;-71
2022/11/05 06:21:41;;;;;;;17.20;15.03;;;;;;;8.93;nan;98088.56;5055492;28;20245;-71
2022/11/05 06:24:08;;;;;;;16.03;14.30;;;;;;;8.92;nan;98092.19;5056529;28;20209;-71
2022/11/05 06:26:34;;;;;;;19.43;15.80;;;;;;;8.88;nan;98084.88;5056590;28;20205;-71
2022/11/05 06:29:01;;;;;;;17.37;15.53;;;;;;;8.85;nan;98090.59;5056503;28;20224;-71
2022/11/05 06:31:27;;;;;;;17.87;16.07;;;;;;;8.89;nan;98092.63;5056095;28;20233;-71
2022/11/05 06:33:53;;;;;;;18.23;16.30;;;;;;;8.81;nan;98106.09;5056061;28;20211;-71
2022/11/05 06:36:20;;;;;;;19.90;17.23;;;;;;;8.81;nan;98108.75;5055934;28;20722;-72
2022/11/05 06:38:47;;;;;;;18.53;16.63;;;;;;;8.80;nan;98107.13;5055887;28;20209;-71
2022/11/05 06:41:14;;;;;;;18.63;16.10;;;;;;;8.76;nan;98113.88;5056155;28;20225;-71
2022/11/05 06:43:40;;;;;;;18.40;16.33;;;;;;;8.78;nan;98114.47;5056219;28;20207;-71
2022/11/05 06:46:07;;;;;;;19.20;17.07;;;;;;;8.74;nan;98115.09;5055830;28;20205;-71
2022/11/05 06:48:34;;;;;;;23.43;18.43;;;;;;;8.79;nan;98126.69;5056079;28;20209;-71
2022/11/05 06:51:00;;;;;;;20.57;18.03;;;;;;;8.77;nan;98127.91;5055687;28;20225;-71
2022/11/05 06:53:27;;;;;;;22.17;17.90;;;;;;;8.72;nan;98133.00;5055588;28;20690;-71
2022/11/05 06:55:53;;;;;;;21.17;16.83;;;;;;;8.83;nan;98137.72;5055326;28;20229;-71
2022/11/05 06:58:20;;;;;;;18.50;16.33;;;;;;;8.89;nan;98136.88;5055896;28;20206;-71
2022/11/05 07:00:46;;;;;;;17.47;15.77;;;;;;;8.85;nan;98146.25;5055767;28;20225;-71
2022/11/05 07:03:13;;;;;;;19.87;16.80;;;;;;;8.90;nan;98154.41;5055782;28;20227;-71
2022/11/05 07:05:45;;;;;;;22.00;16.90;;;;;;;8.89;nan;98158.91;5055728;28;20208;-72
2022/11/05 07:08:11;;;;;;;17.53;15.73;;;;;;;8.87;nan;98166.25;5054406;28;20205;-72
2022/11/05 07:10:38;;;;;;;18.50;16.50;;;;;;;8.89;nan;98158.09;5055708;28;20225;-71
2022/11/05 07:13:04;;;;;;;19.70;16.70;;;;;;;8.91;nan;98166.66;5055590;28;20213;-71
2022/11/05 07:15:31;;;;;;;19.10;17.07;;;;;;;8.87;nan;98173.41;5055486;28;20224;-72
2022/11/05 07:17:59;;;;;;;22.97;17.60;;;;;;;8.90;nan;98171.16;5055514;28;20245;-71
2022/11/05 07:20:26;;;;;;;21.07;18.07;;;;;;;8.96;nan;98178.25;5054973;28;20236;-71
2022/11/05 07:23:01;;;;;;;19.27;16.37;;;;;;;8.94;nan;98182.16;5055147;28;20232;-71
2022/11/05 07:25:28;;;;;;;19.33;15.87;;;;;;;9.00;nan;98190.09;5055898;28;20197;-71
2022/11/05 07:27:54;;;;;;;17.73;15.63;;;;;;;9.05;nan;98192.16;5055315;28;20205;-71
2022/11/05 07:30:20;;;;;;;17.90;15.40;;;;;;;8.97;nan;98200.31;5055283;28;20593;-71
2022/11/05 07:32:47;;;;;;;17.73;15.87;;;;;;;9.00;nan;98202.56;5054897;28;20221;-71
2022/11/05 07:35:13;;;;;;;20.27;16.57;;;;;;;9.09;nan;98204.78;5054744;28;20221;-71
2022/11/05 07:37:44;;;;;;;16.87;14.73;;;;;;;9.00;nan;98203.34;5055168;28;20205;-71
2022/11/05 07:40:12;;;;;;;17.67;15.77;;;;;;;9.07;nan;98203.34;5054665;28;20738;-72
2022/11/05 07:42:43;;;;;;;19.10;15.40;;;;;;;8.98;nan;98210.72;5054991;28;20227;-72
2022/11/05 07:45:10;;;;;;;20.07;15.20;;;;;;;9.09;nan;98214.59;5055018;28;20251;-71
2022/11/05 07:47:38;;;;;;;18.83;16.47;;;;;;;9.04;nan;98211.72;5054904;28;20214;-72
2022/11/05 07:50:06;;;;;;;19.93;15.80;;;;;;;8.97;nan;98219.66;5054792;28;20212;-72
2022/11/05 07:52:33;;;;;;;20.27;15.30;;;;;;;9.11;nan;98228.44;5054913;28;20208;-71
2022/11/05 07:54:59;;;;;;;19.50;14.93;;;;;;;9.01;nan;98222.75;5054761;28;20252;-72
2022/11/05 07:57:26;;;;;;;18.17;15.03;;;;;;;8.88;nan;98233.34;5054489;28;20668;-71
2022/11/05 07:59:52;;;;;;;18.13;16.17;;;;;;;8.98;nan;98241.72;5054486;28;20213;-72
2022/11/05 08:02:18;;;;;;;18.20;15.37;;;;;;;8.97;nan;98242.72;5054561;28;20201;-72
2022/11/05 08:04:45;;;;;;;17.10;15.30;;;;;;;8.97;nan;98240.88;5054516;28;20205;-72
2022/11/05 08:07:11;;;;;;;17.13;15.30;;;;;;;8.99;nan;98243.34;5054525;28;20212;-72
2022/11/05 08:09:37;;;;;;;20.07;14.43;;;;;;;8.81;nan;98246.59;5054533;28;20201;-71
2022/11/05 08:12:04;;;;;;;16.00;14.30;;;;;;;8.76;nan;98240.25;5054346;28;20232;-71
2022/11/05 08:14:30;;;;;;;14.57;13.03;;;;;;;8.73;nan;98253.94;5054366;28;20212;-71
2022/11/05 08:16:58;;;;;;;16.80;13.13;;;;;;;8.72;nan;98247.00;5054036;28;20221;-71
2022/11/05 08:19:24;;;;;;;13.17;11.73;;;;;;;8.58;nan;98256.75;5054249;28;20201;-71
2022/11/05 08:21:50;;;;;;;12.57;9.23;;;;;;;8.44;nan;98255.09;5053912;28;20233;-71
2022/11/05 08:24:17;;;;;;;9.60;8.60;;;;;;;8.41;nan;98257.34;5054174;28;20205;-71
2022/11/05 08:26:43;;;;;;;10.30;9.13;;;;;;;8.51;nan;98257.78;5053936;28;20201;-71
2022/11/05 08:29:10;;;;;;;10.70;9.57;;;;;;;8.43;nan;98263.25;5054052;28;20236;-71
2022/11/05 08:31:37;;;;;;;11.70;9.57;;;;;;;8.44;nan;98267.53;5054100;28;20644;-72
2022/11/05 08:34:03;;;;;;;11.03;8.10;;;;;;;8.45;nan;98274.44;5053623;28;20300;-71
2022/11/05 08:36:30;;;;;;;10.53;6.87;;;;;;;8.40;nan;98274.25;5054372;28;20694;-71
2022/11/05 08:38:56;;;;;;;8.47;7.10;;;;;;;8.23;nan;98279.09;5054021;28;20209;-71
2022/11/05 08:41:22;;;;;;;6.10;5.50;;;;;;;8.19;nan;98282.31;5054610;28;20279;-72
2022/11/05 08:43:49;;;;;;;5.87;5.27;;;;;;;8.26;nan;98277.88;5053926;28;20653;-71
2022/11/05 08:46:15;;;;;;;5.03;4.60;;;;;;;8.15;nan;98287.16;5053809;28;20198;-71
2022/11/05 08:48:41;;;;;;;6.33;5.40;;;;;;;8.15;nan;98289.00;5053872;28;20205;-71
2022/11/05 08:51:08;;;;;;;6.03;5.40;;;;;;;8.18;nan;98291.25;5053605;28;20221;-71
2022/11/05 08:53:34;;;;;;;7.20;5.60;;;;;;;8.25;nan;98281.53;5054082;28;20209;-71
2022/11/05 08:56:00;;;;;;;6.60;5.10;;;;;;;8.19;nan;98293.69;5052984;28;20236;-71
2022/11/05 08:58:27;;;;;;;5.97;5.07;;;;;;;8.31;nan;98292.16;5053446;28;20212;-71
2022/11/05 09:00:53;;;;;;;7.50;5.10;;;;;;;8.30;nan;98290.53;5053559;28;20225;-71
2022/11/05 09:03:19;;;;;;;4.73;4.33;;;;;;;8.25;nan;98303.56;5053565;28;20235;-71
2022/11/05 09:05:46;;;;;;;8.07;5.10;;;;;;;8.26;nan;98299.06;5053535;28;20208;-71
2022/11/05 09:08:16;;;;;;;5.50;4.60;;;;;;;8.19;nan;98308.78;5053520;28;20209;-71
2022/11/05 09:10:43;;;;;;;5.20;4.70;;;;;;;8.17;nan;98306.34;5053154;28;20602;-71
2022/11/05 09:13:10;;;;;;;5.80;5.20;;;;;;;8.27;nan;98305.97;5053369;28;20205;-71
2022/11/05 09:15:36;;;;;;;6.13;5.13;;;;;;;8.26;nan;98309.66;5053084;28;20224;-71
2022/11/05 09:18:04;;;;;;;6.27;5.67;;;;;;;8.29;nan;98307.41;5053411;28;20266;-71
2022/11/05 09:20:32;;;;;;;5.30;4.77;;;;;;;8.30;nan;98316.19;5053259;28;20232;-71
2022/11/05 09:22:58;;;;;;;6.50;5.83;;;;;;;8.31;nan;98317.81;5052955;28;20240;-71
2022/11/05 09:25:25;;;;;;;6.47;5.57;;;;;;;8.27;nan;98321.88;5052985;28;20201;-71
2022/11/05 09:27:51;;;;;;;6.20;5.60;;;;;;;8.33;nan;98323.75;5053023;28;20634;-71
2022/11/05 09:30:18;;;;;;;9.60;6.20;;;;;;;8.27;nan;98325.34;5052955;28;20589;-72
2022/11/05 09:32:44;;;;;;;6.63;5.93;;;;;;;8.28;nan;98324.31;5053244;28;20205;-72
2022/11/05 09:35:10;;;;;;;7.27;6.27;;;;;;;8.26;nan;98330.84;5052755;28;20205;-71
2022/11/05 09:37:37;;;;;;;7.87;6.93;;;;;;;8.34;nan;98325.38;5053063;28;20212;-72
2022/11/05 09:40:04;;;;;;;7.80;7.00;;;;;;;8.48;nan;98322.59;5052650;28;20613;-72
2022/11/05 09:42:36;;;;;;;8.00;7.20;;;;;;;8.48;nan;98325.22;5053129;28;20205;-71
2022/11/05 09:45:08;;;;;;;10.57;8.63;;;;;;;8.43;nan;98330.31;5046794;28;20799;-71
2022/11/05 09:47:42;;;;;;;12.03;8.63;;;;;;;8.56;nan;98332.19;5049260;28;20289;-71
2022/11/05 09:50:15;;;;;;;9.20;8.07;;;;;;;8.54;nan;98326.25;5053331;28;20235;-71
2022/11/05 09:52:41;;;;;;;10.17;9.07;;;;;;;8.55;nan;98323.41;5034807;28;20209;-71
2022/11/05 09:55:22;;;;;;;12.93;9.17;;;;;;;8.69;nan;98325.06;5033522;28;20208;-71
2022/11/05 09:58:02;;;;;;;11.77;9.60;;;;;;;8.62;nan;98326.91;5035583;28;20190;-71
2022/11/05 10:00:31;;;;;;;11.07;8.93;;;;;;;8.70;nan;98333.84;5034851;28;20226;-71
2022/11/05 10:03:03;;;;;;;11.53;9.57;;;;;;;8.78;nan;98338.97;5034974;28;20206;-72
2022/11/05 10:05:31;;;;;;;10.50;9.40;;;;;;;8.73;nan;98341.41;5034870;28;20221;-71
2022/11/05 10:08:06;;;;;;;13.33;11.37;;;;;;;8.83;nan;98345.28;5034753;28;20217;-71
2022/11/05 10:10:44;;;;;;;16.33;10.80;;;;;;;8.72;nan;98353.00;5034292;28;20229;-71
2022/11/05 10:13:32;;;;;;;11.67;9.23;;;;;;;8.67;nan;98366.03;5035024;28;20281;-71
2022/11/05 10:16:13;;;;;;;14.70;10.93;;;;;;;8.75;nan;98365.88;5035906;28;20229;-71
2022/11/05 10:18:43;;;;;;;12.07;10.40;;;;;;;8.78;nan;98362.84;5036286;28;20196;-71
2022/11/05 10:21:17;;;;;;;13.33;11.03;;;;;;;8.76;nan;98376.28;5036519;28;20284;-71
2022/11/05 10:23:48;;;;;;;13.50;10.93;;;;;;;8.88;nan;98368.56;5036249;28;20190;-71
2022/11/05 10:26:20;;;;;;;14.27;11.17;;;;;;;8.86;nan;98373.22;5036335;28;20186;-71
2022/11/05 10:28:47;;;;;;;16.70;10.93;;;;;;;8.78;nan;98384.03;5035962;28;20186;-71
2022/11/05 10:31:19;;;;;;;14.67;11.23;;;;;;;8.73;nan;98383.81;5036264;28;20234;-71
2022/11/05 10:33:46;;;;;;;12.67;9.57;;;;;;;8.64;nan;98382.38;5036294;28;20197;-71
2022/11/05 10:36:25;;;;;;;12.23;9.90;;;;;;;8.73;nan;98381.97;5035865;28;20225;-71
2022/11/05 10:38:54;;;;;;;11.03;9.30;;;;;;;8.87;nan;98388.16;5035682;28;20212;-71
2022/11/05 10:41:38;;;;;;;11.63;8.90;;;;;;;8.78;nan;98389.34;5035970;28;20222;-71
2022/11/05 10:44:04;;;;;;;9.20;8.27;;;;;;;8.91;nan;98382.22;5035991;28;20194;-71
2022/11/05 10:46:57;;;;;;;10.67;9.23;;;;;;;9.11;nan;98392.88;5035436;28;20681;-72
2022/11/05 10:49:42;;;;;;;13.00;8.87;;;;;;;9.12;nan;98383.91;5035482;28;20210;-72
2022/11/05 10:52:24;;;;;;;10.87;8.73;;;;;;;9.09;nan;98384.31;5035851;28;20217;-71
2022/11/05 10:54:53;;;;;;;10.23;8.60;;;;;;;9.27;nan;98385.34;5035882;28;20208;-71
2022/11/05 10:57:50;;;;;;;10.23;8.40;;;;;;;9.32;nan;98393.53;5035719;28;20591;-71
2022/11/05 11:00:16;;;;;;;9.50;8.13;;;;;;;9.31;nan;98380.44;5023231;28;20229;-71
2022/11/05 11:02:58;;;;;;;10.47;8.17;;;;;;;9.42;nan;98387.81;5035900;28;20301;-71
2022/11/05 11:05:26;;;;;;;9.00;8.10;;;;;;;9.57;nan;98385.78;5035294;28;20196;-71
2022/11/05 11:08:04;;;;;;;9.27;8.20;;;;;;;9.46;nan;98384.53;5035054;28;20212;-71
2022/11/05 11:10:39;;;;;;;9.37;7.40;;;;;;;9.51;nan;98389.25;5035144;28;20701;-71
2022/11/05 11:13:06;;;;;;;8.43;7.03;;;;;;;9.67;nan;98380.88;5035111;28;20553;-71
2022/11/05 11:15:33;;;;;;;7.77;6.50;;;;;;;9.64;nan;98391.91;5035461;28;20209;-71
2022/11/05 11:18:24;;;;;;;7.63;6.77;;;;;;;9.63;nan;98391.09;5035382;28;20228;-71
2022/11/05 11:20:51;;;;;;;8.90;6.60;;;;;;;9.37;nan;98393.72;5034821;28;20592;-71
2022/11/05 11:23:17;;;;;;;7.80;7.00;;;;;;;9.47;nan;98398.63;5035741;28;20572;-71
2022/11/05 11:25:51;;;;;;;9.53;7.50;;;;;;;9.59;nan;98402.34;5035131;28;20198;-72
2022/11/05 11:28:41;;;;;;;9.50;6.53;;;;;;;9.64;nan;98398.03;5034882;28;20196;-72
2022/11/05 11:31:11;;;;;;;8.57;7.67;;;;;;;9.59;nan;98399.69;5024415;28;20236;-71
2022/11/05 11:33:40;;;;;;;8.93;7.17;;;;;;;9.44;nan;98397.22;5035290;28;20196;-72
2022/11/05 11:36:08;;;;;;;10.27;8.40;;;;;;;9.62;nan;98393.94;5035150;28;20236;-71
2022/11/05 11:38:36;;;;;;;9.17;7.67;;;;;;;9.65;nan;98396.19;5034813;28;20206;-71
2022/11/05 11:41:25;;;;;;;8.10;7.30;;;;;;;9.65;nan;98393.53;5035025;28;20236;-71
2022/11/05 11:44:02;;;;;;;9.33;8.23;;;;;;;10.07;nan;98401.06;5034966;28;20195;-71
2022/11/05 11:46:33;;;;;;;10.17;8.30;;;;;;;9.95;nan;98402.69;5034748;28;20192;-71
2022/11/05 11:49:00;;;;;;;10.83;8.67;;;;;;;10.06;nan;98402.13;5034971;28;20248;-71
2022/11/05 11:51:39;;;;;;;8.67;7.40;;;;;;;9.88;nan;98404.56;5034523;28;20233;-71
2022/11/05 11:54:18;;;;;;;10.93;7.13;;;;;;;9.82;nan;98405.38;5034495;28;20273;-71
2022/11/05 11:56:46;;;;;;;11.23;6.90;;;;;;;9.82;nan;98402.72;5034650;28;20231;-71
2022/11/05 11:59:22;;;;;;;9.00;6.57;;;;;;;9.78;nan;98407.59;5034492;28;20221;-71
2022/11/05 12:02:24;;;;;;;8.13;7.27;;;;;;;9.77;nan;98405.19;5034423;28;20221;-71
2022/11/05 12:05:23;;;;;;;6.57;5.87;;;;;;;9.61;nan;98402.94;5023654;28;20205;-71
2022/11/05 12:07:57;;;;;;;7.87;6.53;;;;;;;9.77;nan;98403.31;5034022;28;20198;-71
2022/11/05 12:10:50;;;;;;;8.70;6.90;;;;;;;9.76;nan;98404.34;5034299;28;20230;-72
2022/11/05 12:13:19;;;;;;;7.00;6.33;;;;;;;10.02;nan;98400.84;5034799;28;20543;-72
2022/11/05 12:15:53;;;;;;;6.43;5.73;;;;;;;9.87;nan;98393.09;5033935;28;20216;-71
2022/11/05 12:18:35;;;;;;;7.57;6.80;;;;;;;9.88;nan;98393.94;5033222;28;20630;-71
2022/11/05 12:21:12;;;;;;;7.20;6.13;;;;;;;9.85;nan;98392.50;5034043;28;20309;-71
2022/11/05 12:23:59;;;;;;;5.70;5.10;;;;;;;9.90;nan;98399.84;5034179;28;20196;-71
2022/11/05 12:26:39;;;;;;;5.53;4.87;;;;;;;9.95;nan;98395.56;5034135;28;20187;-71
2022/11/05 12:29:15;;;;;;;8.27;6.00;;;;;;;9.92;nan;98382.69;5034037;28;20190;-71
2022/11/05 12:32:19;;;;;;;5.50;4.90;;;;;;;9.89;nan;98390.25;5033893;28;20221;-71
2022/11/05 12:34:57;;;;;;;6.83;4.93;;;;;;;10.01;nan;98384.09;5033465;28;20672;-71
2022/11/05 12:37:37;;;;;;;6.83;5.33;;;;;;;10.05;nan;98389.84;5033558;28;20214;-71
2022/11/05 12:40:09;;;;;;;5.93;5.30;;;;;;;10.03;nan;98386.53;5034135;28;20518;-71
2022/11/05 12:42:54;;;;;;;6.37;5.43;;;;;;;10.19;nan;98384.28;5033274;28;20205;-71
2022/11/05 12:45:34;;;;;;;6.10;5.50;;;;;;;10.22;nan;98385.72;5033973;28;20191;-71
2022/11/05 12:48:13;;;;;;;6.57;5.33;;;;;;;10.23;nan;98393.47;5033484;28;20277;-71
2022/11/05 12:50:49;;;;;;;6.03;5.33;;;;;;;10.23;nan;98392.69;5033685;28;20232;-71
2022/11/05 12:53:28;;;;;;;6.30;5.53;;;;;;;10.26;nan;98395.72;5033574;28;20189;-71
2022/11/05 12:55:59;;;;;;;6.23;5.63;;;;;;;10.30;nan;98393.47;5033606;28;20208;-71
2022/11/05 12:58:35;;;;;;;5.67;5.17;;;;;;;10.30;nan;98404.09;5033871;28;20208;-71